Terminal Aerodrome Forecast
Issued by NWS

Home | Current Version | Previous Version | Text Only | Print | Product List | Glossary On
Versions: 1 2 3 4 5 6 7 8 9 10 11 12 13 14 15
000
FTUS43 KGRB 262331
TAFCWA
TAF
KCWA 262331Z 2700/2724 32007G15KT P6SM SCT060 SCT090
      TEMPO 2700/2704 -SHRA BKN060
     FM270400 29006KT P6SM SCT070 SCT100
     FM271100 28007KT P6SM SKC
     FM272000 25008KT P6SM SCT200=

USA.gov is the U.S. government's official web portal to all federal, state and local government web resources and services.